Jordan Valley WCD
8215 S 1300 W, West Jordan
Last Weather Update:05/15/2012 2:00:00 AM
Date
ETo
ETc
Rain
Irrigation
Req
Temp
Max
Temp
Min
Temp
Avg
Avg RH
Avg Wind
Avg Solar
inches
inches
incehs
inches
F
F
F
%
%
watts/m2
04/01/2012 0.05" 0.00" 0.11" -0.09" 64.7° 34.2° 44.9° 61.7% 4.3 MPH 72.4w/m2
04/02/2012 0.12" 0.00" 0.00" 0.00" 50.8° 30.3° 41.1° 42.1% 5.0 MPH 235.0w/m2
04/03/2012 0.13" 0.01" 0.00" 0.01" 61.4° 29.1° 45.8° 50.3% 1.8 MPH 233.8w/m2
04/04/2012 0.18" 0.01" 0.00" 0.01" 73.6° 39.5° 56.3° 40.2% 6.0 MPH 183.5w/m2
04/05/2012 0.03" 0.00" 0.00" 0.00" 51.6° 33.5° 44.1° 50.7% 2.1 MPH 0.0w/m2
04/06/2012 0.02" 0.00" 0.04" -0.03" 45.8° 30.4° 37.4° 60.9% 2.8 MPH 0.0w/m2
04/07/2012 0.05" 0.01" 0.00" 0.01" 65.3° 22.5° 42.1° 45.6% 2.6 MPH 0.0w/m2
04/08/2012 0.06" 0.01" 0.00" 0.01" 75.3° 31.9° 52.5° 35.6% 2.7 MPH 0.0w/m2
04/09/2012 0.08" 0.01" 0.00" 0.01" 78.2° 37.4° 58.5° 27.2% 3.2 MPH 0.0w/m2
04/10/2012 0.09" 0.02" 0.00" 0.02" 79.6° 42.5° 61.3° 27.2% 3.9 MPH 0.0w/m2
04/11/2012 0.09" 0.02" 0.17" -0.12" 76.2° 42.8° 57.4° 40.1% 5.8 MPH 0.0w/m2
04/12/2012 0.03" 0.01" 0.35" -0.27" 50.8° 35.1° 42.9° 77.1% 5.0 MPH 0.0w/m2
04/13/2012 0.04" 0.01" 0.01" 0.00" 56.0° 35.0° 45.4° 66.0% 4.4 MPH 0.0w/m2
04/14/2012 0.01" 0.00" 0.12" -0.09" 52.3° 37.3° 43.1° 80.4% 2.0 MPH 0.0w/m2
04/15/2012 0.04" 0.01" 0.01" 0.01" 58.1° 38.0° 47.6° 53.7% 3.5 MPH 0.0w/m2
04/16/2012 0.15" 0.05" 0.00" 0.05" 63.1° 35.4° 52.1° 38.2% 2.0 MPH 246.3w/m2
04/17/2012 0.11" 0.04" 0.41" -0.29" 59.6° 42.2° 51.2° 63.9% 5.2 MPH 178.0w/m2
04/18/2012 0.07" 0.02" 0.01" 0.02" 57.4° 41.4° 51.6° 68.2% 4.1 MPH 86.1w/m2
04/19/2012 0.11" 0.04" 0.01" 0.04" 63.9° 38.2° 50.4° 69.0% 1.3 MPH 201.9w/m2
04/20/2012 0.14" 0.06" 0.00" 0.06" 72.3° 38.8° 55.8° 60.1% 1.5 MPH 243.0w/m2
04/21/2012 0.19" 0.08" 0.00" 0.08" 82.0° 45.5° 63.0° 47.2% 2.3 MPH 289.8w/m2
04/22/2012 0.19" 0.08" 0.00" 0.08" 88.2° 44.3° 66.4° 42.4% 1.6 MPH 278.4w/m2
04/23/2012 0.18" 0.09" 0.00" 0.09" 88.0° 49.9° 69.2° 36.9% 2.5 MPH 232.3w/m2
04/24/2012 0.26" 0.13" 0.00" 0.13" 86.0° 59.3° 73.6° 22.3% 5.5 MPH 282.3w/m2
04/25/2012 0.13" 0.07" 0.00" 0.07" 75.2° 57.7° 66.5° 41.5% 3.9 MPH 136.7w/m2
04/26/2012 0.18" 0.09" 0.42" -0.24" 78.8° 41.9° 63.4° 47.2% 6.1 MPH 184.7w/m2
04/27/2012 0.13" 0.07" 0.18" -0.07" 53.1° 38.1° 45.0° 60.6% 3.4 MPH 245.4w/m2
04/28/2012 0.15" 0.08" 0.00" 0.08" 55.5° 29.8° 45.0° 43.0% 2.0 MPH 305.1w/m2
04/29/2012 0.16" 0.09" 0.00" 0.09" 63.5° 35.8° 50.5° 48.2% 1.8 MPH 300.2w/m2
04/30/2012 0.16" 0.10" 0.00" 0.10" 75.8° 39.1° 59.1° 42.4% 4.1 MPH 202.4w/m2
Totals: 3.37" 1.23" 1.84" -0.24" 88.2° 22.5° 52.8° 49.7% 3.4 MPH 137.9w/m2